Time;durP1;ratioP1;P1;durP2;ratioP2;P2;SDS_P1;SDS_P2;PMS_P1;PMS_P2;Temp;Humidity;BMP_temperature;BMP_pressure;BME280_temperature;BME280_humidity;BME280_pressure;Samples;Min_cycle;Max_cycle;Signal;HPM_P1;HPM_P2
2021/09/13 00:00:13;;;;;;;8.25;5.07;;;18.60;71.60;;;;;;5046001;28;20024;-50
2021/09/13 00:02:57;;;;;;;7.43;5.50;;;18.60;71.50;;;;;;5045314;28;20036;-53
2021/09/13 00:05:41;;;;;;;7.97;5.07;;;18.60;71.40;;;;;;5045679;28;20056;-49
2021/09/13 00:08:25;;;;;;;7.72;5.18;;;18.50;71.60;;;;;;5045954;28;20028;-51
2021/09/13 00:11:10;;;;;;;9.73;5.10;;;18.50;71.70;;;;;;5045393;28;20035;-49
2021/09/13 00:13:54;;;;;;;7.28;4.82;;;18.50;71.60;;;;;;5045312;28;20056;-49
2021/09/13 00:16:38;;;;;;;6.75;4.70;;;18.50;71.60;;;;;;5044230;28;20056;-52
2021/09/13 00:19:23;;;;;;;7.55;4.68;;;18.50;71.70;;;;;;5044261;28;20364;-49
2021/09/13 00:22:07;;;;;;;7.38;4.68;;;18.50;71.70;;;;;;5045193;28;20385;-52
2021/09/13 00:24:51;;;;;;;9.55;4.70;;;18.50;71.80;;;;;;5045068;28;20091;-49
2021/09/13 00:27:35;;;;;;;6.53;5.10;;;18.50;71.90;;;;;;5045121;28;20108;-51
2021/09/13 00:30:20;;;;;;;9.35;5.00;;;18.50;72.00;;;;;;5045000;28;20075;-49
2021/09/13 00:33:04;;;;;;;10.35;5.40;;;18.40;72.20;;;;;;5045319;28;20060;-52
2021/09/13 00:35:48;;;;;;;6.13;5.05;;;18.40;72.00;;;;;;5045096;28;20060;-51
2021/09/13 00:38:33;;;;;;;7.55;5.55;;;18.40;72.30;;;;;;5044847;28;20048;-49
2021/09/13 00:41:17;;;;;;;8.40;5.38;;;18.40;72.40;;;;;;5044900;28;20071;-52
2021/09/13 00:44:02;;;;;;;6.93;4.80;;;18.40;72.60;;;;;;5045104;28;20044;-53
2021/09/13 00:46:46;;;;;;;6.75;4.88;;;18.40;72.60;;;;;;5044530;28;20072;-49
2021/09/13 00:49:31;;;;;;;6.00;4.85;;;18.40;72.90;;;;;;5044640;28;20035;-52
2021/09/13 00:52:15;;;;;;;6.75;5.32;;;18.40;73.00;;;;;;5044544;28;20036;-49
2021/09/13 00:54:59;;;;;;;7.05;5.05;;;18.40;73.00;;;;;;5044521;28;20052;-52
2021/09/13 00:57:44;;;;;;;7.57;4.60;;;18.40;73.00;;;;;;5044404;28;20075;-49
2021/09/13 01:00:28;;;;;;;10.35;5.28;;;18.50;73.10;;;;;;5029584;28;20052;-52
2021/09/13 01:03:12;;;;;;;7.40;4.85;;;18.40;73.00;;;;;;5045103;28;20084;-52
2021/09/13 01:05:56;;;;;;;7.05;5.07;;;18.40;73.10;;;;;;5044524;28;20387;-50
2021/09/13 01:08:41;;;;;;;8.80;5.13;;;18.40;73.00;;;;;;5044453;28;20048;-53
2021/09/13 01:11:25;;;;;;;7.65;5.40;;;18.40;73.00;;;;;;5044233;28;20032;-52
2021/09/13 01:14:09;;;;;;;6.72;5.38;;;18.40;73.10;;;;;;5043353;28;20216;-51
2021/09/13 01:16:53;;;;;;;8.98;5.47;;;18.40;73.00;;;;;;5044120;28;20028;-50
2021/09/13 01:19:38;;;;;;;6.70;5.10;;;18.40;73.00;;;;;;5044105;28;20355;-51
2021/09/13 01:22:22;;;;;;;9.05;5.15;;;18.40;72.90;;;;;;5044033;28;20027;-49
2021/09/13 01:25:07;;;;;;;6.75;5.22;;;18.30;72.90;;;;;;5029160;28;20028;-50
2021/09/13 01:27:51;;;;;;;9.00;5.13;;;18.30;72.90;;;;;;5043794;28;20052;-52
2021/09/13 01:30:36;;;;;;;7.93;4.90;;;18.30;72.80;;;;;;5043129;28;20063;-50
2021/09/13 01:33:21;;;;;;;6.80;5.50;;;18.30;72.70;;;;;;5043776;28;20028;-48
2021/09/13 01:36:05;;;;;;;6.60;4.80;;;18.20;72.80;;;;;;5044321;28;20051;-49
2021/09/13 01:38:49;;;;;;;7.47;5.03;;;18.20;72.60;;;;;;5043985;28;20061;-53
2021/09/13 01:41:33;;;;;;;7.28;4.80;;;18.20;72.50;;;;;;5044347;28;20076;-50
2021/09/13 01:44:18;;;;;;;6.20;4.88;;;18.20;72.30;;;;;;5043352;28;20075;-50
2021/09/13 01:47:02;;;;;;;7.88;4.68;;;18.10;72.40;;;;;;5044111;28;20095;-51
2021/09/13 01:49:46;;;;;;;5.80;4.90;;;18.10;72.20;;;;;;5044004;28;20383;-51
2021/09/13 01:52:30;;;;;;;11.35;4.70;;;18.10;72.30;;;;;;5043893;28;20067;-49
2021/09/13 01:55:15;;;;;;;6.28;4.70;;;18.10;72.20;;;;;;5043817;28;20056;-49
2021/09/13 01:57:59;;;;;;;5.95;4.32;;;18.00;72.10;;;;;;5043745;28;20348;-51
2021/09/13 02:00:43;;;;;;;6.00;4.25;;;18.10;72.10;;;;;;5043618;28;20037;-50
2021/09/13 02:03:28;;;;;;;6.18;4.53;;;18.00;71.90;;;;;;5043553;28;20047;-50
2021/09/13 02:06:12;;;;;;;7.25;4.40;;;17.90;71.90;;;;;;5043966;28;20020;-52
2021/09/13 02:08:56;;;;;;;9.88;4.25;;;17.90;72.00;;;;;;5043639;28;20056;-52
2021/09/13 02:11:40;;;;;;;5.95;4.32;;;17.90;72.00;;;;;;5043642;28;20056;-49
2021/09/13 02:14:25;;;;;;;5.97;4.68;;;17.90;72.00;;;;;;5043887;28;20040;-52
2021/09/13 02:17:09;;;;;;;4.53;4.05;;;17.80;71.90;;;;;;5043913;28;20093;-50
2021/09/13 02:19:53;;;;;;;6.72;4.82;;;17.90;71.80;;;;;;5043721;28;20053;-51
2021/09/13 02:22:37;;;;;;;5.25;4.40;;;17.80;71.70;;;;;;5043650;28;20101;-51
2021/09/13 02:25:22;;;;;;;7.63;4.10;;;17.90;71.60;;;;;;5043332;28;20351;-50
2021/09/13 02:28:06;;;;;;;5.38;4.15;;;17.80;71.60;;;;;;5043648;28;20040;-49
2021/09/13 02:30:50;;;;;;;5.05;3.88;;;17.80;71.60;;;;;;5043468;28;20041;-52
2021/09/13 02:33:35;;;;;;;8.65;4.80;;;17.80;71.40;;;;;;5043170;28;20036;-49
2021/09/13 02:36:19;;;;;;;6.28;4.20;;;17.80;71.40;;;;;;5043150;28;20224;-52
2021/09/13 02:39:03;;;;;;;4.90;4.03;;;17.80;71.50;;;;;;5043852;28;20023;-49
2021/09/13 02:41:47;;;;;;;6.78;4.60;;;17.70;71.60;;;;;;5047230;28;20079;-52
2021/09/13 02:44:32;;;;;;;5.05;4.20;;;17.60;71.80;;;;;;5047402;28;20122;-50
2021/09/13 02:47:16;;;;;;;6.65;4.07;;;17.60;71.80;;;;;;5047401;28;20233;-51
2021/09/13 02:50:00;;;;;;;6.70;4.18;;;17.60;71.80;;;;;;5047317;28;20028;-52
2021/09/13 02:52:45;;;;;;;7.50;4.43;;;17.50;71.80;;;;;;5046777;28;20076;-50
2021/09/13 02:55:29;;;;;;;6.47;4.22;;;17.50;71.80;;;;;;5047202;28;20263;-52
2021/09/13 02:58:13;;;;;;;6.53;4.70;;;17.50;71.70;;;;;;5045826;28;20051;-49
2021/09/13 03:00:57;;;;;;;6.10;4.68;;;17.50;71.70;;;;;;5046675;28;20048;-49
2021/09/13 03:03:42;;;;;;;6.43;3.92;;;17.40;71.70;;;;;;5046750;28;20029;-52
2021/09/13 03:06:26;;;;;;;7.15;4.20;;;17.40;71.70;;;;;;5045653;28;20085;-49
2021/09/13 03:09:10;;;;;;;5.75;3.92;;;17.40;71.60;;;;;;5046943;28;20067;-49
2021/09/13 03:11:55;;;;;;;4.65;4.03;;;17.40;71.70;;;;;;5046632;28;20037;-50
2021/09/13 03:14:39;;;;;;;5.57;4.10;;;17.30;71.80;;;;;;5046552;28;20132;-49
2021/09/13 03:17:23;;;;;;;5.68;4.30;;;17.30;71.70;;;;;;5046404;28;20033;-50
2021/09/13 03:20:08;;;;;;;6.00;4.32;;;17.30;71.90;;;;;;5046790;28;20093;-49
2021/09/13 03:22:52;;;;;;;5.13;4.10;;;17.30;71.70;;;;;;5045267;28;20036;-50
2021/09/13 03:25:37;;;;;;;5.30;4.25;;;17.20;71.70;;;;;;5046465;28;20098;-48
2021/09/13 03:28:21;;;;;;;6.05;4.20;;;17.30;71.70;;;;;;5046192;28;20145;-51
2021/09/13 03:31:05;;;;;;;7.57;4.40;;;17.20;71.60;;;;;;5046149;28;20363;-50
2021/09/13 03:33:49;;;;;;;4.57;3.65;;;17.20;71.60;;;;;;5046049;28;20094;-52
2021/09/13 03:36:34;;;;;;;7.47;4.40;;;17.20;71.70;;;;;;5046067;28;20063;-51
2021/09/13 03:39:18;;;;;;;7.30;4.22;;;17.20;71.60;;;;;;5045932;28;20032;-52
2021/09/13 03:42:04;;;;;;;8.70;4.63;;;17.10;71.50;;;;;;5046411;28;20103;-50
2021/09/13 03:44:48;;;;;;;5.13;4.30;;;17.10;71.50;;;;;;5045901;28;20272;-50
2021/09/13 03:47:33;;;;;;;7.22;4.50;;;17.10;71.40;;;;;;5046381;28;20068;-51
2021/09/13 03:50:17;;;;;;;8.35;4.13;;;17.10;71.50;;;;;;5046086;28;20032;-49
2021/09/13 03:53:01;;;;;;;8.35;4.60;;;17.00;71.70;;;;;;5046253;28;20036;-49
2021/09/13 03:55:46;;;;;;;7.63;4.32;;;17.00;71.70;;;;;;5045098;28;20048;-49
2021/09/13 03:58:30;;;;;;;7.63;4.60;;;17.00;71.60;;;;;;5046164;28;20074;-50
2021/09/13 04:01:14;;;;;;;5.95;4.53;;;17.10;71.60;;;;;;5045794;28;20032;-49
2021/09/13 04:04:01;;;;;;;6.45;4.80;;;17.00;71.60;;;;;;5045753;28;20048;-48
2021/09/13 04:06:48;;;;;;;5.30;3.95;;;16.90;71.60;;;;;;5045605;28;20048;-51
2021/09/13 04:12:16;;;;;;;8.40;4.30;;;16.90;71.50;;;;;;5045505;28;20379;-50
2021/09/13 04:15:01;;;;;;;6.38;4.63;;;16.90;71.50;;;;;;5045812;28;20076;-49
2021/09/13 04:17:45;;;;;;;5.40;4.30;;;16.80;71.80;;;;;;5045475;28;20256;-50
2021/09/13 04:20:29;;;;;;;7.30;4.40;;;16.80;71.90;;;;;;5045865;28;20040;-49
2021/09/13 04:23:13;;;;;;;6.32;5.05;;;16.80;71.80;;;;;;5045458;28;20079;-52
2021/09/13 04:25:57;;;;;;;7.55;4.95;;;16.80;71.70;;;;;;5045136;28;20040;-49
2021/09/13 04:28:41;;;;;;;6.65;4.70;;;16.80;71.70;;;;;;5045340;28;20036;-49
2021/09/13 04:31:27;;;;;;;5.80;4.57;;;16.80;71.60;;;;;;5045281;28;20064;-52
2021/09/13 04:34:11;;;;;;;8.10;4.78;;;16.80;71.70;;;;;;5045067;28;20039;-49
2021/09/13 04:36:56;;;;;;;8.98;4.43;;;16.80;71.70;;;;;;5044856;28;20039;-52
2021/09/13 04:39:40;;;;;;;6.55;4.38;;;16.80;71.80;;;;;;5044903;28;20205;-48
2021/09/13 04:42:24;;;;;;;6.90;4.65;;;16.70;71.70;;;;;;5044728;28;20084;-50
2021/09/13 04:45:09;;;;;;;8.52;4.80;;;16.80;71.80;;;;;;5045068;28;20072;-52
2021/09/13 04:47:53;;;;;;;6.57;4.75;;;16.70;71.80;;;;;;5044927;28;20033;-50
2021/09/13 04:50:37;;;;;;;10.98;4.90;;;16.70;71.80;;;;;;5044701;28;20060;-52
2021/09/13 04:53:22;;;;;;;7.55;4.90;;;16.70;71.70;;;;;;5045132;28;20032;-51
2021/09/13 04:56:06;;;;;;;7.72;5.32;;;16.70;71.60;;;;;;5044815;28;20375;-49
2021/09/13 04:58:51;;;;;;;6.40;4.80;;;16.70;71.60;;;;;;5044755;28;20072;-49
2021/09/13 05:01:35;;;;;;;7.82;5.32;;;16.70;71.90;;;;;;5043990;28;20063;-49
2021/09/13 05:04:19;;;;;;;7.53;5.18;;;16.70;72.00;;;;;;5044642;28;20036;-51
2021/09/13 05:07:04;;;;;;;10.52;5.63;;;16.70;72.00;;;;;;5044278;28;20028;-49
2021/09/13 05:09:48;;;;;;;6.68;5.40;;;16.70;72.10;;;;;;5044544;28;20086;-51
2021/09/13 05:12:32;;;;;;;8.45;5.65;;;16.70;72.30;;;;;;5044168;28;20506;-52
2021/09/13 05:15:17;;;;;;;8.38;5.53;;;16.70;72.30;;;;;;5044193;28;20356;-49
2021/09/13 05:18:01;;;;;;;8.50;5.68;;;16.70;72.60;;;;;;5044550;28;20217;-52
2021/09/13 05:20:45;;;;;;;8.82;5.70;;;16.70;72.70;;;;;;5044280;28;20071;-54
2021/09/13 05:23:29;;;;;;;7.47;5.30;;;16.70;72.70;;;;;;5044492;28;20037;-55
2021/09/13 05:26:13;;;;;;;8.05;5.78;;;16.70;72.80;;;;;;5043871;28;20052;-54
2021/09/13 05:28:58;;;;;;;8.82;6.30;;;16.80;72.90;;;;;;5043906;28;20053;-51
2021/09/13 05:31:42;;;;;;;12.10;6.32;;;16.80;72.80;;;;;;5043901;28;20355;-53
2021/09/13 05:34:26;;;;;;;8.32;6.35;;;16.80;72.90;;;;;;5043783;28;20045;-54
2021/09/13 05:37:11;;;;;;;7.80;6.07;;;16.80;72.90;;;;;;5043915;28;20356;-53
2021/09/13 05:39:55;;;;;;;9.50;6.10;;;16.80;73.00;;;;;;5043724;28;20229;-51
2021/09/13 05:42:39;;;;;;;6.55;5.57;;;16.80;73.10;;;;;;5043877;28;20351;-52
2021/09/13 05:45:24;;;;;;;7.30;6.00;;;16.80;73.00;;;;;;5043534;28;20064;-51
2021/09/13 05:48:08;;;;;;;11.45;5.93;;;16.80;73.00;;;;;;5043914;28;20270;-50
2021/09/13 05:50:52;;;;;;;11.60;6.88;;;16.90;73.10;;;;;;5043669;28;20257;-48
2021/09/13 05:53:36;;;;;;;12.93;7.57;;;17.00;73.30;;;;;;5043514;28;20400;-52
2021/09/13 05:56:21;;;;;;;11.32;7.20;;;17.00;73.30;;;;;;5043553;28;20085;-52
2021/09/13 05:59:05;;;;;;;9.20;6.63;;;17.10;73.30;;;;;;5043714;28;20052;-53
2021/09/13 06:01:49;;;;;;;11.80;7.78;;;17.20;73.40;;;;;;5043807;28;20148;-52
2021/09/13 06:04:34;;;;;;;9.52;6.70;;;17.20;73.60;;;;;;5043723;28;20217;-48
2021/09/13 06:07:19;;;;;;;12.95;7.07;;;17.30;73.40;;;;;;5043516;28;20029;-52
2021/09/13 06:10:03;;;;;;;11.57;7.30;;;17.30;73.30;;;;;;5043415;28;20028;-49
2021/09/13 06:12:48;;;;;;;12.43;7.35;;;17.30;73.30;;;;;;5043264;28;20056;-51
2021/09/13 06:15:32;;;;;;;9.43;6.75;;;17.40;73.10;;;;;;5047172;28;20031;-51
2021/09/13 06:18:16;;;;;;;11.48;7.30;;;17.40;73.00;;;;;;5047371;28;20208;-52
2021/09/13 06:21:01;;;;;;;10.57;7.30;;;17.50;73.30;;;;;;5047802;28;20339;-52
2021/09/13 06:23:45;;;;;;;11.18;6.53;;;17.50;73.30;;;;;;5047461;28;20079;-49
2021/09/13 06:26:30;;;;;;;14.23;7.60;;;17.80;73.30;;;;;;5047790;28;20108;-51
2021/09/13 06:29:15;;;;;;;10.00;6.55;;;17.90;73.20;;;;;;5047677;28;20217;-49
2021/09/13 06:31:59;;;;;;;10.75;7.40;;;18.10;72.90;;;;;;5047201;28;20051;-49
2021/09/13 06:34:43;;;;;;;8.93;7.03;;;18.30;72.70;;;;;;5047015;28;20360;-49
2021/09/13 06:37:28;;;;;;;9.98;6.28;;;18.60;72.00;;;;;;5046371;28;20041;-51
2021/09/13 06:40:12;;;;;;;14.38;7.05;;;19.00;71.00;;;;;;5047211;28;20076;-51
2021/09/13 06:42:56;;;;;;;13.25;6.60;;;19.30;70.20;;;;;;5047399;28;20044;-49
2021/09/13 06:45:41;;;;;;;8.98;6.65;;;19.80;69.00;;;;;;5046800;28;20113;-51
2021/09/13 06:48:27;;;;;;;8.90;7.18;;;20.20;68.00;;;;;;5046768;28;20081;-55
2021/09/13 06:51:11;;;;;;;12.95;6.68;;;20.30;67.60;;;;;;5047288;28;20209;-52
2021/09/13 06:53:55;;;;;;;12.45;6.95;;;20.60;66.80;;;;;;5046779;28;20097;-51
2021/09/13 06:56:39;;;;;;;11.82;6.60;;;20.80;66.50;;;;;;5046929;28;20120;-52
2021/09/13 06:59:24;;;;;;;8.80;6.68;;;20.80;66.70;;;;;;5047198;28;20205;-52
2021/09/13 07:02:08;;;;;;;10.18;6.90;;;21.10;66.20;;;;;;5046620;28;20029;-53
2021/09/13 07:04:52;;;;;;;11.10;6.75;;;21.20;66.10;;;;;;5046849;28;20343;-50
2021/09/13 07:07:37;;;;;;;9.98;6.43;;;21.20;66.40;;;;;;5046815;28;20084;-53
2021/09/13 07:10:21;;;;;;;9.15;6.00;;;21.40;65.80;;;;;;5046670;28;20074;-53
2021/09/13 07:13:05;;;;;;;7.72;6.25;;;21.60;65.50;;;;;;5046582;28;20032;-43
2021/09/13 07:15:49;;;;;;;8.73;6.13;;;21.80;64.80;;;;;;5046649;28;20292;-54
2021/09/13 07:18:34;;;;;;;10.32;7.15;;;22.00;64.50;;;;;;5046246;28;20029;-52
2021/09/13 07:21:18;;;;;;;8.60;6.63;;;22.00;64.30;;;;;;5046205;28;20032;-53
2021/09/13 07:24:02;;;;;;;10.75;6.68;;;22.30;63.60;;;;;;5046555;28;20029;-49
2021/09/13 07:26:48;;;;;;;8.80;6.00;;;22.80;61.90;;;;;;5046375;28;20040;-53
2021/09/13 07:29:32;;;;;;;8.50;6.10;;;23.20;61.50;;;;;;5046784;28;20041;-52
2021/09/13 07:32:16;;;;;;;8.55;6.38;;;23.40;60.70;;;;;;5046264;28;20133;-53
2021/09/13 07:35:00;;;;;;;8.52;6.47;;;23.50;59.80;;;;;;5046567;28;20041;-53
2021/09/13 07:37:45;;;;;;;9.27;6.93;;;23.80;59.00;;;;;;5046094;28;20032;-53
2021/09/13 07:40:29;;;;;;;9.40;6.22;;;24.10;58.10;;;;;;5045964;28;20079;-50
2021/09/13 07:43:13;;;;;;;12.00;6.75;;;24.40;57.40;;;;;;5045972;28;20201;-53
2021/09/13 07:45:58;;;;;;;9.38;7.15;;;24.50;57.40;;;;;;5045648;28;20049;-53
2021/09/13 07:48:42;;;;;;;10.38;6.75;;;24.50;56.80;;;;;;5046320;28;20140;-53
2021/09/13 07:51:26;;;;;;;8.93;6.60;;;24.70;56.40;;;;;;5045720;28;20352;-53
2021/09/13 07:54:11;;;;;;;8.68;6.07;;;25.00;55.50;;;;;;5046125;28;20047;-52
2021/09/13 07:56:55;;;;;;;9.82;5.97;;;25.20;55.80;;;;;;5045898;28;20339;-53
2021/09/13 07:59:39;;;;;;;10.07;5.75;;;25.20;55.70;;;;;;5045679;28;20375;-54
2021/09/13 08:02:25;;;;;;;9.32;5.45;;;24.90;56.30;;;;;;5046011;28;20085;-53
2021/09/13 08:05:10;;;;;;;8.05;5.60;;;24.70;57.20;;;;;;5045417;28;20126;-53
2021/09/13 08:07:54;;;;;;;7.82;5.60;;;24.60;57.30;;;;;;5045561;28;20037;-53
2021/09/13 08:10:39;;;;;;;8.23;5.18;;;24.50;57.80;;;;;;5045342;28;20032;-54
2021/09/13 08:13:23;;;;;;;9.68;5.40;;;24.40;58.20;;;;;;5045273;28;20044;-53
2021/09/13 08:16:07;;;;;;;8.57;5.38;;;24.20;58.50;;;;;;5045261;28;20148;-53
2021/09/13 08:18:52;;;;;;;6.90;4.95;;;24.10;58.60;;;;;;5044664;28;20033;-52
2021/09/13 08:21:40;;;;;;;7.65;4.90;;;24.00;59.00;;;;;;5044417;28;20033;-53
2021/09/13 08:24:24;;;;;;;6.45;4.22;;;24.00;59.80;;;;;;5045077;28;20052;-54
2021/09/13 08:27:09;;;;;;;6.88;4.70;;;23.80;58.90;;;;;;5045798;28;20388;-53
2021/09/13 08:29:53;;;;;;;6.68;3.90;;;23.80;58.90;;;;;;5045400;28;20059;-52
2021/09/13 08:32:37;;;;;;;7.15;4.03;;;23.80;59.20;;;;;;5044032;28;20037;-54
2021/09/13 08:35:21;;;;;;;6.55;4.35;;;23.80;58.10;;;;;;5044897;28;20237;-52
2021/09/13 08:38:05;;;;;;;9.98;5.03;;;23.70;57.70;;;;;;5044672;28;20037;-54
2021/09/13 08:40:53;;;;;;;6.10;4.60;;;23.50;58.00;;;;;;5044897;28;20271;-53
2021/09/13 08:43:37;;;;;;;5.68;4.25;;;23.60;58.10;;;;;;5044799;28;20024;-53
2021/09/13 08:46:36;;;;;;;6.55;4.03;;;23.60;59.00;;;;;;5043535;28;20047;-52
2021/09/13 08:49:38;;;;;;;7.88;4.47;;;23.60;59.40;;;;;;5044007;28;20032;-52
2021/09/13 08:52:22;;;;;;;6.20;4.15;;;23.50;59.60;;;;;;5044942;28;20045;-53
2021/09/13 08:55:07;;;;;;;5.97;3.80;;;23.50;59.90;;;;;;5041870;28;20084;-53
2021/09/13 08:57:51;;;;;;;6.80;4.10;;;23.70;60.70;;;;;;5050784;28;20078;-53
2021/09/13 09:00:36;;;;;;;7.55;4.03;;;23.70;61.00;;;;;;5043555;28;20031;-53
2021/09/13 09:03:20;;;;;;;7.47;4.70;;;23.80;61.20;;;;;;5044694;28;20056;-53
2021/09/13 09:06:05;;;;;;;5.55;4.40;;;23.80;61.60;;;;;;5044804;28;20079;-54
2021/09/13 09:08:50;;;;;;;8.10;4.38;;;23.70;61.60;;;;;;5044521;28;20107;-52
2021/09/13 09:12:02;;;;;;;6.13;3.72;;;23.70;61.30;;;;;;5030100;28;20040;-54
2021/09/13 09:14:48;;;;;;;5.25;3.83;;;23.90;62.40;;;;;;5044292;28;20352;-53
2021/09/13 09:17:33;;;;;;;8.02;4.40;;;24.00;61.30;;;;;;5044730;28;20036;-53
2021/09/13 09:20:17;;;;;;;7.30;4.20;;;24.10;61.40;;;;;;5044517;28;20387;-54
2021/09/13 09:23:03;;;;;;;7.90;4.35;;;24.10;61.70;;;;;;5044027;28;20067;-53
2021/09/13 09:25:47;;;;;;;7.25;4.30;;;24.10;61.50;;;;;;5044390;28;20044;-54
2021/09/13 09:28:34;;;;;;;5.85;4.50;;;24.20;61.60;;;;;;5044238;28;20052;-53
2021/09/13 09:31:35;;;;;;;8.68;4.00;;;24.30;61.80;;;;;;5043959;28;20029;-54
2021/09/13 09:34:21;;;;;;;6.95;4.25;;;24.30;61.80;;;;;;5043999;28;20088;-53
2021/09/13 09:37:08;;;;;;;6.10;4.32;;;24.30;61.50;;;;;;5043898;28;20036;-54
2021/09/13 09:39:56;;;;;;;10.18;4.57;;;24.40;60.20;;;;;;5043969;28;20040;-54
2021/09/13 09:42:40;;;;;;;8.93;5.13;;;24.50;60.60;;;;;;5043753;28;20300;-53
2021/09/13 09:45:25;;;;;;;9.55;4.38;;;24.40;59.20;;;;;;5037554;28;20061;-54
2021/09/13 09:48:10;;;;;;;6.60;4.60;;;24.40;59.10;;;;;;5042608;28;20112;-53
2021/09/13 09:50:54;;;;;;;7.72;4.75;;;24.30;58.70;;;;;;5043773;28;20256;-53
2021/09/13 09:57:20;;;;;;;5.88;4.50;;;24.30;59.10;;;;;;5044050;28;20012;-54
2021/09/13 10:00:24;;;;;;;8.88;4.50;;;24.30;59.70;;;;;;5043660;28;20091;-53
2021/09/13 10:03:09;;;;;;;6.85;4.43;;;24.50;59.80;;;;;;5043587;28;20033;-54
2021/09/13 10:05:53;;;;;;;8.68;4.07;;;24.70;60.60;;;;;;5042669;28;20032;-54
2021/09/13 10:12:18;;;;;;;6.57;4.65;;;24.90;58.10;;;;;;5043862;28;20024;-54
2021/09/13 10:15:04;;;;;;;6.82;4.90;;;24.80;58.50;;;;;;5043520;28;20036;-54
2021/09/13 10:21:30;;;;;;;7.38;4.78;;;25.10;59.90;;;;;;5043823;28;20084;-54
2021/09/13 10:24:24;;;;;;;8.55;4.97;;;25.20;59.60;;;;;;5043087;28;20036;-54
2021/09/13 10:27:10;;;;;;;7.80;4.13;;;25.30;57.90;;;;;;5042279;28;20036;-54
2021/09/13 10:30:25;;;;;;;6.80;5.45;;;25.40;59.10;;;;;;5043007;28;20097;-54
2021/09/13 10:33:11;;;;;;;9.20;4.85;;;25.50;56.10;;;;;;5043013;28;20036;-55
2021/09/13 10:35:57;;;;;;;7.25;4.75;;;25.40;56.00;;;;;;5043227;28;20050;-54
2021/09/13 10:42:37;;;;;;;7.22;4.03;;;25.50;55.50;;;;;;5043711;28;20017;-55
2021/09/13 10:45:36;;;;;;;5.35;4.20;;;25.80;55.60;;;;;;5042938;28;20041;-55
2021/09/13 10:48:21;;;;;;;5.50;4.35;;;25.80;54.40;;;;;;5043551;28;20044;-54
2021/09/13 10:51:09;;;;;;;4.80;3.85;;;26.00;55.40;;;;;;5042335;28;20032;-53
2021/09/13 10:53:54;;;;;;;8.35;4.05;;;26.20;55.40;;;;;;5042980;28;20080;-54
2021/09/13 11:00:39;;;;;;;5.43;3.50;;;26.50;55.60;;;;;;5045005;28;20108;-55
2021/09/13 11:03:31;;;;;;;5.60;4.20;;;26.50;56.70;;;;;;5046613;28;20048;-55
2021/09/13 11:06:16;;;;;;;6.65;4.00;;;26.50;54.80;;;;;;5046725;28;20032;-54
2021/09/13 11:09:10;;;;;;;5.85;4.15;;;26.20;53.80;;;;;;5046685;28;20072;-55
2021/09/13 11:11:56;;;;;;;4.38;3.83;;;26.20;55.20;;;;;;5033068;28;20170;-55
2021/09/13 11:18:34;;;;;;;;;;;26.10;54.60;;;;;;5047260;28;20012;-54
2021/09/13 11:21:22;;;;;;;5.82;4.55;;;26.10;54.10;;;;;;5050850;28;19916;-53
2021/09/13 11:24:16;;;;;;;4.57;3.92;;;26.20;54.70;;;;;;5046163;28;20052;-54
2021/09/13 11:27:02;;;;;;;4.78;3.92;;;26.10;54.20;;;;;;5046111;28;20032;-54
2021/09/13 11:33:27;;;;;;;5.60;3.70;;;26.50;55.50;;;;;;5046494;28;20042;-56
2021/09/13 11:36:11;;;;;;;5.20;3.83;;;26.60;56.20;;;;;;5045918;28;20419;-55
2021/09/13 11:39:06;;;;;;;4.20;3.33;;;26.80;54.50;;;;;;5031122;28;20028;-55
2021/09/13 11:42:13;;;;;;;5.00;3.75;;;26.90;55.10;;;;;;5045819;28;20088;-55
2021/09/13 11:45:00;;;;;;;4.35;3.50;;;27.10;54.70;;;;;;5045895;28;20041;-55
2021/09/13 11:51:25;;;;;;;5.97;3.67;;;27.50;53.60;;;;;;5046244;28;20013;-55
2021/09/13 11:54:09;;;;;;;5.13;3.90;;;27.50;53.50;;;;;;5045664;28;20360;-55
2021/09/13 11:56:53;;;;;;;5.78;4.05;;;27.50;53.50;;;;;;5045623;28;20029;-57
2021/09/13 12:03:19;;;;;;;;;;;27.40;54.20;;;;;;5046498;28;20083;-56
2021/09/13 12:06:03;;;;;;;5.78;3.58;;;27.30;52.70;;;;;;5030445;28;20104;-55
2021/09/13 12:12:28;;;;;;;5.88;3.50;;;27.10;53.70;;;;;;5045821;28;20020;-55
2021/09/13 12:15:13;;;;;;;5.07;3.95;;;26.90;53.90;;;;;;5016771;28;20225;-56
2021/09/13 12:17:58;;;;;;;4.72;3.70;;;27.00;52.80;;;;;;5030567;28;20072;-55
2021/09/13 12:24:23;;;;;;;;;;;27.30;55.60;;;;;;5046043;28;20055;-56
2021/09/13 12:27:21;;;;;;;5.57;3.85;;;27.50;57.10;;;;;;5049999;28;19939;-56
2021/09/13 12:30:06;;;;;;;5.68;3.50;;;27.60;55.30;;;;;;5045227;28;20097;-56
2021/09/13 12:32:55;;;;;;;4.40;3.50;;;27.60;52.20;;;;;;5045099;28;20424;-55
2021/09/13 12:39:20;;;;;;;;;;;27.60;53.20;;;;;;5045792;28;20009;-56
2021/09/13 12:42:24;;;;;;;4.68;3.58;;;27.70;51.40;;;;;;5049785;28;19956;-55
2021/09/13 12:45:09;;;;;;;7.13;3.50;;;27.70;50.30;;;;;;5044651;28;20376;-55
2021/09/13 12:47:58;;;;;;;8.45;3.67;;;27.70;50.30;;;;;;5044720;28;20032;-56
2021/09/13 12:54:31;;;;;;;4.22;3.20;;;27.70;51.00;;;;;;5045244;28;20024;-56
2021/09/13 12:57:33;;;;;;;5.40;3.42;;;27.60;51.90;;;;;;5044597;28;20067;-56
2021/09/13 13:00:18;;;;;;;5.40;3.30;;;27.70;52.40;;;;;;5044571;28;20032;-55
2021/09/13 13:03:11;;;;;;;7.40;3.33;;;27.60;52.50;;;;;;5044231;28;20048;-56
2021/09/13 13:05:55;;;;;;;5.68;3.50;;;27.50;52.00;;;;;;5044221;28;20024;-55
2021/09/13 13:12:21;;;;;;;5.95;3.65;;;27.30;51.00;;;;;;5051287;28;20059;-55
2021/09/13 13:15:05;;;;;;;6.20;3.70;;;27.20;51.70;;;;;;5044159;28;20037;-56
2021/09/13 13:21:30;;;;;;;5.90;3.33;;;27.20;52.00;;;;;;5044645;28;20013;-56
2021/09/13 13:24:19;;;;;;;4.35;3.33;;;27.10;52.20;;;;;;5043753;28;20144;-55
2021/09/13 13:27:04;;;;;;;6.57;3.88;;;27.10;53.60;;;;;;5043980;28;20036;-55
2021/09/13 13:33:29;;;;;;;;;;;26.90;53.80;;;;;;5051651;28;20048;-55
2021/09/13 13:36:14;;;;;;;6.13;3.60;;;26.80;52.80;;;;;;5044020;28;19911;-55
2021/09/13 13:38:58;;;;;;;6.72;4.15;;;26.80;53.30;;;;;;5043888;28;20070;-56
2021/09/13 13:45:24;;;;;;;4.65;3.50;;;26.80;54.30;;;;;;5043398;28;20245;-56
2021/09/13 13:48:08;;;;;;;5.50;3.60;;;26.80;54.40;;;;;;5043707;28;20027;-56
2021/09/13 13:50:52;;;;;;;4.50;3.50;;;26.70;54.40;;;;;;5043534;28;20036;-55
2021/09/13 13:57:17;;;;;;;7.28;3.45;;;26.60;52.10;;;;;;5044152;28;20040;-55
2021/09/13 14:00:04;;;;;;;4.85;3.60;;;26.50;53.00;;;;;;5043389;28;20028;-56
2021/09/13 14:06:29;;;;;;;4.30;3.22;;;26.50;54.80;;;;;;5044086;28;20013;-55
2021/09/13 14:09:13;;;;;;;3.92;3.15;;;26.50;53.70;;;;;;5043551;28;20044;-56
2021/09/13 14:11:58;;;;;;;6.32;3.80;;;26.60;54.90;;;;;;5043712;28;20249;-55
2021/09/13 14:18:23;;;;;;;4.22;3.55;;;26.50;54.20;;;;;;5043900;28;20020;-56
2021/09/13 14:21:08;;;;;;;5.05;3.42;;;26.50;54.20;;;;;;5043604;28;20030;-54
2021/09/13 14:23:53;;;;;;;4.20;3.40;;;26.50;53.70;;;;;;5043110;28;20036;-54
2021/09/13 14:30:18;;;;;;;4.03;3.30;;;26.70;54.30;;;;;;5043863;28;20040;-55
2021/09/13 14:33:03;;;;;;;5.85;3.58;;;26.70;53.70;;;;;;5043168;28;20269;-56
2021/09/13 14:39:28;;;;;;;;;;;26.80;53.60;;;;;;5047932;28;20055;-55
2021/09/13 14:42:12;;;;;;;3.80;3.17;;;26.70;51.80;;;;;;5052070;28;19940;-55
2021/09/13 14:44:57;;;;;;;4.63;3.28;;;26.70;52.90;;;;;;5046939;28;20048;-55
2021/09/13 14:51:23;;;;;;;5.60;3.22;;;26.70;52.20;;;;;;5047344;28;20017;-56
2021/09/13 14:54:07;;;;;;;6.60;3.35;;;26.70;53.10;;;;;;5046767;28;20056;-56
2021/09/13 14:56:53;;;;;;;3.90;3.20;;;26.70;53.70;;;;;;5047032;28;20144;-56
2021/09/13 15:03:18;;;;;;;;;;;26.80;53.80;;;;;;5047557;28;20024;-55
2021/09/13 15:06:03;;;;;;;4.10;3.08;;;26.70;53.60;;;;;;5046766;28;20079;-56
2021/09/13 15:08:47;;;;;;;5.88;3.40;;;26.80;53.90;;;;;;5046720;28;20386;-56
2021/09/13 15:11:32;;;;;;;3.95;3.20;;;26.80;54.00;;;;;;5046476;28;20085;-55
2021/09/13 15:14:17;;;;;;;6.32;3.10;;;26.80;53.80;;;;;;5045317;28;20088;-55
2021/09/13 15:17:01;;;;;;;4.50;3.25;;;26.80;52.50;;;;;;5046732;28;20339;-56
2021/09/13 15:19:45;;;;;;;5.47;3.40;;;26.70;52.50;;;;;;5046533;28;20036;-55
2021/09/13 15:22:29;;;;;;;4.90;3.72;;;26.70;52.20;;;;;;5046831;28;20170;-56
2021/09/13 15:25:14;;;;;;;5.35;3.17;;;26.70;52.10;;;;;;5046759;28;20025;-56
2021/09/13 15:27:58;;;;;;;6.05;3.28;;;26.70;52.70;;;;;;5046635;28;20348;-55
2021/09/13 15:30:42;;;;;;;6.60;2.95;;;26.70;52.40;;;;;;5046083;28;20124;-55
2021/09/13 15:33:26;;;;;;;4.78;3.47;;;26.60;52.60;;;;;;5046222;28;20037;-55
2021/09/13 15:36:11;;;;;;;5.03;3.13;;;26.60;51.70;;;;;;5046324;28;20371;-55
2021/09/13 15:38:56;;;;;;;5.35;2.92;;;26.50;51.40;;;;;;5046245;28;20159;-54
2021/09/13 15:41:41;;;;;;;3.95;3.15;;;26.50;51.70;;;;;;5046125;28;20024;-55
2021/09/13 15:44:25;;;;;;;8.90;3.55;;;26.40;52.30;;;;;;5046079;28;20032;-54
2021/09/13 15:47:09;;;;;;;6.10;3.40;;;26.40;51.90;;;;;;5045461;28;20368;-54
2021/09/13 15:49:54;;;;;;;5.38;3.33;;;26.30;51.80;;;;;;5046544;28;20084;-55
2021/09/13 15:52:38;;;;;;;7.47;3.40;;;26.20;52.30;;;;;;5046028;28;20040;-56